createdAt,value
2018-12-29T00:01:10.703Z,60.98
2018-12-29T00:03:40.905Z,61.73
2018-12-29T00:06:11.188Z,59.71
2018-12-29T00:08:41.813Z,58.56
2018-12-29T00:11:12.263Z,58.26
2018-12-29T00:13:42.453Z,58.12
2018-12-29T00:16:12.828Z,57.58
2018-12-29T00:18:43.095Z,56.86
2018-12-29T00:21:13.268Z,56.79
2018-12-29T00:23:43.468Z,57.12
2018-12-29T00:26:13.879Z,57.40
2018-12-29T00:28:44.230Z,57.06
2018-12-29T00:31:14.415Z,56.68
2018-12-29T00:33:44.609Z,56.18
2018-12-29T00:36:14.894Z,56.43
2018-12-29T00:38:45.212Z,56.42
2018-12-29T00:41:15.403Z,56.47
2018-12-29T00:43:45.606Z,56.03
2018-12-29T00:46:15.913Z,56.79
2018-12-29T00:48:46.222Z,57.48
2018-12-29T00:51:16.418Z,57.11
2018-12-29T00:53:46.640Z,56.20
2018-12-29T00:56:16.913Z,56.64
2018-12-29T00:58:47.306Z,56.62
2018-12-29T01:01:17.473Z,56.47
2018-12-29T01:03:47.676Z,56.71
2018-12-29T01:06:18.042Z,56.08
2018-12-29T01:08:48.860Z,58.55
2018-12-29T01:11:19.123Z,57.78
2018-12-29T01:13:49.326Z,56.98
2018-12-29T01:16:19.708Z,57.05
2018-12-29T01:18:49.893Z,56.96
2018-12-29T01:21:20.196Z,56.75
2018-12-29T01:23:50.467Z,56.27
2018-12-29T01:26:20.657Z,56.86
2018-12-29T01:28:50.832Z,56.95
2018-12-29T01:31:21.135Z,59.25
2018-12-29T01:33:51.413Z,58.65
2018-12-29T01:36:21.612Z,58.18
2018-12-29T01:38:51.697Z,59.84
2018-12-29T01:41:21.968Z,58.67
2018-12-29T01:43:52.233Z,58.76
2018-12-29T01:46:22.408Z,58.11
2018-12-29T01:48:52.653Z,57.66
2018-12-29T01:51:22.932Z,57.83
2018-12-29T01:53:53.200Z,58.70
2018-12-29T01:56:23.382Z,61.22
2018-12-29T01:58:53.641Z,59.66
2018-12-29T02:01:23.833Z,60.27
2018-12-29T02:03:54.072Z,59.80
2018-12-29T02:06:24.329Z,58.50
2018-12-29T02:08:54.726Z,59.46
2018-12-29T02:11:24.915Z,59.42
2018-12-29T02:13:55.089Z,58.27
2018-12-29T02:16:25.369Z,58.13
2018-12-29T02:18:55.659Z,58.84
2018-12-29T02:21:25.821Z,58.72
2018-12-29T02:23:55.994Z,59.65
2018-12-29T02:26:26.292Z,59.14
2018-12-29T02:28:56.589Z,58.65
2018-12-29T02:31:26.846Z,58.11
2018-12-29T02:33:57.110Z,59.02
2018-12-29T02:36:27.361Z,60.03
2018-12-29T02:38:57.556Z,58.77
2018-12-29T02:41:27.825Z,58.62
2018-12-29T02:43:58.102Z,58.29
2018-12-29T02:46:28.266Z,58.15
2018-12-29T02:48:58.462Z,58.80
2018-12-29T02:51:28.733Z,58.27
2018-12-29T02:53:59.020Z,60.43
2018-12-29T02:56:29.204Z,59.48
2018-12-29T02:58:59.382Z,59.55
2018-12-29T03:01:29.641Z,60.17
2018-12-29T03:03:59.971Z,59.50
2018-12-29T03:06:30.160Z,58.65
2018-12-29T03:09:00.955Z,58.15
2018-12-29T03:11:31.350Z,58.45
2018-12-29T03:14:01.608Z,60.93
2018-12-29T03:16:31.891Z,60.28
2018-12-29T03:19:02.160Z,59.79
2018-12-29T03:21:32.351Z,59.48
2018-12-29T03:24:02.525Z,59.25
2018-12-29T03:26:32.868Z,60.02
2018-12-29T03:29:03.164Z,59.75
2018-12-29T03:31:33.339Z,59.28
2018-12-29T03:34:03.511Z,60.84
2018-12-29T03:36:33.795Z,60.44
2018-12-29T03:39:04.871Z,61.11
2018-12-29T03:41:35.071Z,60.01
2018-12-29T03:44:05.316Z,59.85
2018-12-29T03:46:35.596Z,59.01
2018-12-29T03:49:05.861Z,58.63
2018-12-29T03:51:36.062Z,58.16
2018-12-29T03:54:06.227Z,59.65
2018-12-29T03:56:36.490Z,58.54
2018-12-29T03:59:06.679Z,61.44
2018-12-29T04:01:36.951Z,60.73
2018-12-29T04:04:07.342Z,59.69
2018-12-29T04:06:37.514Z,59.05
2018-12-29T04:12:34.353Z,59.63
2018-12-29T04:15:05.017Z,58.73
2018-12-29T04:17:35.280Z,60.96
2018-12-29T04:20:05.822Z,61.33
2018-12-29T04:22:36.018Z,60.94
2018-12-29T04:25:06.293Z,59.87
2018-12-29T04:27:36.550Z,58.86
2018-12-29T04:30:06.771Z,58.38
2018-12-29T04:32:36.958Z,60.59
2018-12-29T04:35:07.333Z,60.75
2018-12-29T04:37:37.603Z,61.90
2018-12-29T04:40:07.843Z,61.88
2018-12-29T04:42:38.129Z,60.75
2018-12-29T04:45:08.341Z,60.66
2018-12-29T04:47:38.509Z,59.41
2018-12-29T04:50:09.465Z,58.70
2018-12-29T04:52:39.735Z,59.58
2018-12-29T04:55:09.997Z,59.88
2018-12-29T04:57:40.179Z,60.10
2018-12-29T05:00:10.809Z,62.31
2018-12-29T05:02:41.056Z,62.94
2018-12-29T05:05:11.332Z,61.41
2018-12-29T05:07:41.518Z,60.22
2018-12-29T05:10:11.812Z,58.38
2018-12-29T05:12:42.387Z,58.86
2018-12-29T05:15:12.672Z,59.57
2018-12-29T05:17:42.845Z,59.48
2018-12-29T05:20:13.126Z,59.94
2018-12-29T05:22:43.320Z,57.85
2018-12-29T05:25:13.578Z,61.07
2018-12-29T05:27:43.825Z,57.73
2018-12-29T05:30:14.025Z,58.17
2018-12-29T05:32:44.242Z,57.15
2018-12-29T05:35:15.339Z,56.34
2018-12-29T05:37:45.718Z,57.98
2018-12-29T05:40:15.905Z,57.34
2018-12-29T05:42:46.090Z,56.31
2018-12-29T05:45:16.384Z,56.83
2018-12-29T05:47:46.632Z,56.50
2018-12-29T05:50:16.809Z,57.94
2018-12-29T05:52:47.002Z,57.92
2018-12-29T05:55:17.257Z,56.90
2018-12-29T05:57:47.514Z,56.96
2018-12-29T06:00:17.685Z,56.17
2018-12-29T06:02:47.853Z,56.70
2018-12-29T06:05:18.113Z,57.82
2018-12-29T06:07:48.375Z,57.94
2018-12-29T06:10:18.561Z,59.79
2018-12-29T06:12:48.873Z,59.68
2018-12-29T06:15:19.155Z,58.89
2018-12-29T06:17:49.431Z,59.49
2018-12-29T06:20:19.672Z,58.75
2018-12-29T06:22:49.857Z,59.20
2018-12-29T06:25:20.143Z,58.34
2018-12-29T06:27:50.424Z,57.84
2018-12-29T06:30:20.709Z,59.07
2018-12-29T06:32:50.917Z,58.08
2018-12-29T06:35:21.184Z,57.66
2018-12-29T06:37:51.447Z,56.81
2018-12-29T06:40:22.406Z,57.50
2018-12-29T06:42:52.802Z,55.76
2018-12-29T06:45:22.966Z,55.88
2018-12-29T06:47:53.138Z,54.13
2018-12-29T06:50:23.418Z,57.25
2018-12-29T06:52:53.763Z,51.77
2018-12-29T06:55:23.920Z,53.03
2018-12-29T06:57:54.118Z,51.51
2018-12-29T07:00:24.369Z,50.42
2018-12-29T07:02:54.629Z,50.22
2018-12-29T07:05:24.824Z,51.86
2018-12-29T07:07:55.009Z,52.46
2018-12-29T07:10:25.316Z,50.81
2018-12-29T07:12:56.093Z,48.68
2018-12-29T07:15:26.378Z,48.83
2018-12-29T07:17:56.555Z,47.81
2018-12-29T07:20:26.919Z,47.28
2018-12-29T07:22:57.080Z,45.63
2018-12-29T07:25:27.810Z,45.93
2018-12-29T07:27:58.629Z,45.62
2018-12-29T07:30:29.078Z,46.00
2018-12-29T07:32:59.714Z,45.18
2018-12-29T07:35:30.952Z,43.92
2018-12-29T07:38:01.995Z,45.78
2018-12-29T07:40:32.498Z,46.02
2018-12-29T07:43:02.948Z,45.05
2018-12-29T07:45:33.472Z,42.69
2018-12-29T07:48:04.615Z,42.85
2018-12-29T07:50:35.216Z,41.41
2018-12-29T07:53:05.878Z,40.23
2018-12-29T07:55:37.246Z,41.14
2018-12-29T07:58:08.600Z,41.60
2018-12-29T08:00:39.206Z,41.28
2018-12-29T08:03:09.455Z,40.75
2018-12-29T08:05:40.059Z,40.32
2018-12-29T08:08:10.417Z,38.62
2018-12-29T08:10:40.811Z,39.05
2018-12-29T08:13:11.610Z,39.06
2018-12-29T08:15:41.928Z,37.89
2018-12-29T08:18:12.140Z,38.06
2018-12-29T08:20:43.764Z,37.75
2018-12-29T08:23:14.721Z,35.12
2018-12-29T08:25:45.300Z,37.04
2018-12-29T08:28:15.831Z,38.12
2018-12-29T08:30:46.089Z,33.80
2018-12-29T08:33:16.327Z,34.92
2018-12-29T08:35:46.510Z,33.76
2018-12-29T08:38:16.744Z,33.53
2018-12-29T08:40:46.957Z,34.82
2018-12-29T08:43:17.178Z,31.52
2018-12-29T08:45:47.430Z,31.23
2018-12-29T08:48:17.626Z,31.17
2018-12-29T08:50:47.785Z,32.34
2018-12-29T08:53:17.993Z,32.15
2018-12-29T08:55:48.262Z,31.97
2018-12-29T08:58:18.497Z,31.10
2018-12-29T09:00:48.732Z,31.59
2018-12-29T09:03:18.973Z,30.40
2018-12-29T09:05:49.238Z,31.30
2018-12-29T09:08:19.473Z,30.23
2018-12-29T09:10:49.668Z,30.10
2018-12-29T09:13:20.410Z,29.21
2018-12-29T09:15:50.896Z,29.30
2018-12-29T09:18:21.113Z,29.94
2018-12-29T09:20:51.428Z,29.06
2018-12-29T09:23:21.655Z,28.40
2018-12-29T09:25:51.810Z,27.40
2018-12-29T09:28:22.027Z,26.82
2018-12-29T09:30:52.292Z,27.33
2018-12-29T09:33:22.479Z,28.71
2018-12-29T09:35:52.675Z,27.59
2018-12-29T09:38:22.889Z,25.92
2018-12-29T09:40:53.205Z,25.71
2018-12-29T09:43:23.447Z,28.54
2018-12-29T09:45:53.627Z,27.29
2018-12-29T09:48:23.843Z,25.97
2018-12-29T09:50:54.096Z,24.83
2018-12-29T09:53:24.320Z,25.78
2018-12-29T09:55:54.586Z,23.69
2018-12-29T09:58:24.820Z,21.90
2018-12-29T10:00:55.060Z,23.33
2018-12-29T10:03:25.450Z,23.30
2018-12-29T10:05:55.720Z,22.37
2018-12-29T10:08:25.993Z,20.56
2018-12-29T10:10:56.167Z,21.75
2018-12-29T10:13:26.626Z,18.80
2018-12-29T10:15:57.580Z,19.65
2018-12-29T10:18:27.772Z,19.49
2018-12-29T10:20:57.923Z,21.55
2018-12-29T10:23:28.235Z,19.45
2018-12-29T10:25:58.489Z,19.81
2018-12-29T10:28:28.680Z,18.58
2018-12-29T10:30:58.932Z,18.40
2018-12-29T10:33:29.062Z,17.55
2018-12-29T10:35:59.401Z,16.91
2018-12-29T10:38:29.691Z,15.48
2018-12-29T10:40:59.900Z,15.28
2018-12-29T10:43:30.149Z,15.02
2018-12-29T10:46:00.460Z,17.19
2018-12-29T10:48:30.785Z,16.44
2018-12-29T10:51:01.041Z,17.88
2018-12-29T10:53:31.262Z,17.26
2018-12-29T10:56:01.444Z,17.64
2018-12-29T10:58:31.668Z,21.30
2018-12-29T11:01:01.938Z,19.98
2018-12-29T11:03:32.208Z,20.54
2018-12-29T11:06:02.369Z,18.63
2018-12-29T11:08:33.003Z,22.54
2018-12-29T11:11:03.502Z,20.39
2018-12-29T11:13:33.725Z,19.60
2018-12-29T11:16:04.023Z,21.66
2018-12-29T11:18:34.231Z,21.69
2018-12-29T11:21:04.510Z,20.53
2018-12-29T11:23:34.713Z,19.93
2018-12-29T11:26:04.883Z,22.57
2018-12-29T11:28:35.093Z,21.66
2018-12-29T11:31:05.351Z,20.45
2018-12-29T11:33:35.572Z,19.14
2018-12-29T11:36:05.775Z,17.53
2018-12-29T11:38:35.984Z,18.10
2018-12-29T11:41:06.238Z,17.96
2018-12-29T11:43:36.452Z,19.07
2018-12-29T11:46:06.630Z,19.27
2018-12-29T11:48:36.874Z,18.85
2018-12-29T11:51:07.149Z,19.33
2018-12-29T11:53:37.357Z,18.43
2018-12-29T11:56:07.541Z,17.50
2018-12-29T11:58:37.867Z,17.70
2018-12-29T12:01:08.078Z,20.88
2018-12-29T12:03:38.592Z,18.51
2018-12-29T12:06:08.817Z,19.19
2018-12-29T12:08:39.011Z,19.52
2018-12-29T12:11:09.158Z,21.75
2018-12-29T12:13:39.361Z,21.79
2018-12-29T12:16:09.949Z,21.66
2018-12-29T12:18:40.422Z,21.70
2018-12-29T12:21:10.584Z,22.40
2018-12-29T12:23:40.945Z,22.52
2018-12-29T12:26:11.318Z,22.17
2018-12-29T12:28:41.502Z,23.53
2018-12-29T12:31:11.678Z,23.65
2018-12-29T12:33:41.903Z,23.68
2018-12-29T12:36:12.167Z,25.30
2018-12-29T12:38:42.411Z,26.45
2018-12-29T12:41:12.621Z,27.60
2018-12-29T12:43:42.857Z,27.83
2018-12-29T12:46:13.529Z,28.86
2018-12-29T12:48:43.899Z,29.00
2018-12-29T12:51:14.168Z,29.77
2018-12-29T12:53:44.483Z,28.92
2018-12-29T12:56:14.728Z,29.72
2018-12-29T12:58:44.964Z,30.42
2018-12-29T13:01:15.383Z,30.43
2018-12-29T13:03:45.587Z,30.35
2018-12-29T13:06:15.754Z,30.71
2018-12-29T13:08:45.979Z,29.83
2018-12-29T13:11:16.241Z,28.97
2018-12-29T13:13:46.643Z,27.68
2018-12-29T13:16:16.819Z,26.87
2018-12-29T13:18:47.039Z,25.90
2018-12-29T13:21:17.374Z,25.38
2018-12-29T13:23:47.588Z,23.58
2018-12-29T13:26:17.867Z,23.78
2018-12-29T13:28:48.123Z,23.68
2018-12-29T13:31:18.348Z,23.49
2018-12-29T13:33:48.556Z,25.25
2018-12-29T13:36:18.830Z,26.91
2018-12-29T13:38:49.023Z,25.53
2018-12-29T13:41:19.188Z,24.69
2018-12-29T13:43:49.390Z,25.51
2018-12-29T13:46:20.005Z,26.31
2018-12-29T13:48:50.224Z,28.08
2018-12-29T13:51:20.387Z,27.47
2018-12-29T13:53:50.626Z,32.55
2018-12-29T13:56:20.864Z,33.18
2018-12-29T13:58:51.052Z,33.48
2018-12-29T14:01:21.282Z,30.75
2018-12-29T14:03:51.511Z,33.52
2018-12-29T14:06:21.671Z,35.24
2018-12-29T14:08:52.071Z,31.71
2018-12-29T14:11:22.411Z,30.03
2018-12-29T14:13:52.622Z,29.80
2018-12-29T14:16:23.131Z,29.79
2018-12-29T14:18:53.795Z,29.49
2018-12-29T14:21:24.130Z,29.07
2018-12-29T14:23:54.519Z,35.18
2018-12-29T14:26:24.658Z,29.84
2018-12-29T14:28:54.857Z,31.20
2018-12-29T14:31:25.082Z,32.31
2018-12-29T14:33:55.258Z,30.58
2018-12-29T14:36:25.430Z,35.23
2018-12-29T14:38:55.717Z,32.04
2018-12-29T14:41:26.319Z,33.11
2018-12-29T14:43:56.564Z,32.18
2018-12-29T14:46:26.851Z,32.32
2018-12-29T14:48:57.086Z,32.88
2018-12-29T14:51:27.230Z,32.52
2018-12-29T14:53:57.551Z,32.25
2018-12-29T14:56:27.821Z,32.12
2018-12-29T14:58:58.059Z,32.53
2018-12-29T15:01:28.220Z,32.62
2018-12-29T15:03:58.441Z,33.12
2018-12-29T15:06:28.683Z,34.12
2018-12-29T15:08:58.864Z,40.95
2018-12-29T15:11:29.071Z,34.27
2018-12-29T15:13:59.274Z,33.50
2018-12-29T15:16:30.087Z,34.40
2018-12-29T15:19:00.392Z,33.94
2018-12-29T15:21:31.071Z,33.81
2018-12-29T15:24:01.379Z,33.59
2018-12-29T15:26:31.554Z,34.25
2018-12-29T15:29:01.788Z,33.99
2018-12-29T15:31:32.086Z,34.32
2018-12-29T15:34:02.296Z,34.77
2018-12-29T15:36:32.628Z,34.79
2018-12-29T15:39:02.941Z,34.73
2018-12-29T15:41:33.263Z,34.43
2018-12-29T15:44:04.039Z,35.46
2018-12-29T15:46:34.216Z,35.37
2018-12-29T15:49:04.444Z,35.28
2018-12-29T15:51:34.721Z,35.05
2018-12-29T15:54:04.925Z,35.72
2018-12-29T15:56:35.551Z,35.52
2018-12-29T15:59:05.759Z,36.01
2018-12-29T16:01:36.047Z,38.14
2018-12-29T16:04:06.276Z,39.18
2018-12-29T16:06:55.305Z,39.84
2018-12-29T16:09:26.005Z,40.41
2018-12-29T16:11:56.550Z,40.65
2018-12-29T16:14:26.766Z,41.41
2018-12-29T16:16:57.097Z,41.58
2018-12-29T16:19:27.287Z,41.81
2018-12-29T16:21:57.452Z,40.59
2018-12-29T16:24:27.658Z,40.34
2018-12-29T16:26:58.010Z,39.75
2018-12-29T16:29:28.312Z,39.65
2018-12-29T16:31:58.589Z,40.04
2018-12-29T16:34:28.819Z,40.89
2018-12-29T16:36:59.155Z,40.50
2018-12-29T16:39:29.837Z,40.11
2018-12-29T16:42:00.073Z,40.17
2018-12-29T16:44:30.308Z,40.38
2018-12-29T16:47:00.566Z,40.52
2018-12-29T16:49:31.151Z,39.85
2018-12-29T16:52:01.310Z,39.70
2018-12-29T16:54:31.594Z,40.49
2018-12-29T16:57:01.947Z,41.03
2018-12-29T16:59:32.649Z,40.31
2018-12-29T17:02:02.930Z,39.91
2018-12-29T17:04:33.148Z,40.46
2018-12-29T17:07:03.492Z,40.59
2018-12-29T17:09:33.809Z,41.06
2018-12-29T17:12:03.963Z,41.73
2018-12-29T17:14:34.176Z,42.50
2018-12-29T17:17:04.449Z,43.01
2018-12-29T17:19:35.035Z,42.90
2018-12-29T17:22:05.291Z,42.60
2018-12-29T17:24:35.533Z,43.01
2018-12-29T17:27:06.094Z,43.10
2018-12-29T17:29:36.337Z,43.36
2018-12-29T17:32:06.685Z,42.72
2018-12-29T17:34:36.889Z,42.62
2018-12-29T17:37:07.057Z,45.14
2018-12-29T17:39:37.782Z,42.78
2018-12-29T17:42:08.040Z,43.36
2018-12-29T17:44:38.247Z,43.65
2018-12-29T17:47:08.378Z,43.16
2018-12-29T17:49:38.567Z,46.66
2018-12-29T17:52:08.807Z,43.53
2018-12-29T17:54:38.981Z,43.59
2018-12-29T17:57:09.150Z,45.34
2018-12-29T17:59:39.386Z,44.11
2018-12-29T18:02:09.608Z,45.47
2018-12-29T18:04:40.253Z,45.64
2018-12-29T18:07:10.587Z,54.93
2018-12-29T18:09:41.144Z,46.13
2018-12-29T18:12:11.554Z,50.33
2018-12-29T18:14:41.919Z,48.04
2018-12-29T18:17:12.274Z,46.17
2018-12-29T18:19:42.552Z,49.19
2018-12-29T18:22:12.877Z,46.37
2018-12-29T18:24:43.187Z,46.93
2018-12-29T18:27:13.463Z,46.61
2018-12-29T18:29:43.756Z,46.02
2018-12-29T18:32:13.984Z,49.70
2018-12-29T18:34:44.304Z,46.57
2018-12-29T18:37:15.073Z,47.35
2018-12-29T18:39:45.303Z,47.75
2018-12-29T18:42:15.699Z,47.40
2018-12-29T18:44:46.001Z,47.54
2018-12-29T18:47:16.170Z,47.18
2018-12-29T18:49:46.381Z,55.62
2018-12-29T18:52:16.608Z,49.43
2018-12-29T18:54:46.909Z,49.60
2018-12-29T18:57:17.113Z,44.66
2018-12-29T18:59:47.343Z,44.28
2018-12-29T19:02:17.608Z,45.44
2018-12-29T19:04:47.914Z,46.27
2018-12-29T19:07:18.511Z,45.44
2018-12-29T19:09:49.234Z,45.85
2018-12-29T19:12:19.629Z,45.66
2018-12-29T19:14:49.874Z,44.88
2018-12-29T19:17:20.236Z,44.70
2018-12-29T19:19:51.018Z,46.25
2018-12-29T19:22:21.267Z,46.02
2018-12-29T19:24:51.512Z,47.97
2018-12-29T19:27:21.812Z,48.90
2018-12-29T19:29:52.044Z,49.79
2018-12-29T19:32:22.251Z,50.96
2018-12-29T19:34:52.972Z,51.04
2018-12-29T19:37:23.442Z,54.35
2018-12-29T19:39:53.938Z,51.28
2018-12-29T19:42:24.219Z,50.11
2018-12-29T19:44:54.461Z,53.53
2018-12-29T19:47:24.874Z,52.10
2018-12-29T19:49:55.499Z,50.02
2018-12-29T19:52:25.743Z,50.46
2018-12-29T19:54:55.932Z,50.23
2018-12-29T19:57:26.703Z,51.07
2018-12-29T19:59:56.996Z,58.39
2018-12-29T20:02:27.763Z,53.75
2018-12-29T20:04:58.183Z,50.14
2018-12-29T20:07:28.406Z,56.00
2018-12-29T20:09:58.777Z,54.36
2018-12-29T20:12:29.675Z,54.05
2018-12-29T20:14:59.891Z,48.38
2018-12-29T20:17:34.941Z,56.78
2018-12-29T20:20:02.167Z,48.36
2018-12-29T20:22:32.446Z,47.84
2018-12-29T20:25:02.644Z,48.45
2018-12-29T20:27:32.837Z,59.81
2018-12-29T20:30:03.354Z,48.67
2018-12-29T20:32:33.610Z,52.90
2018-12-29T20:35:03.831Z,55.26
2018-12-29T20:37:34.014Z,54.06
2018-12-29T20:40:04.366Z,57.51
2018-12-29T20:42:34.658Z,51.97
2018-12-29T20:45:05.065Z,48.75
2018-12-29T20:47:35.367Z,47.18
2018-12-29T20:50:09.498Z,48.76
2018-12-29T20:52:37.562Z,47.69
2018-12-29T20:55:07.778Z,47.06
2018-12-29T20:57:38.046Z,47.20
2018-12-29T21:00:10.101Z,49.35
2018-12-29T21:02:40.285Z,55.29
2018-12-29T21:05:12.336Z,57.98
2018-12-29T21:07:42.673Z,52.38
2018-12-29T21:10:13.001Z,50.84
2018-12-29T21:12:43.209Z,48.58
2018-12-29T21:15:13.541Z,49.49
2018-12-29T21:17:44.195Z,51.79
2018-12-29T21:20:17.528Z,51.30
2018-12-29T21:25:22.313Z,53.44
2018-12-29T21:27:52.558Z,49.21
2018-12-29T21:30:22.767Z,49.32
2018-12-29T21:32:53.050Z,49.97
2018-12-29T21:35:23.319Z,49.88
2018-12-29T21:37:53.938Z,47.95
2018-12-29T21:40:26.054Z,47.96
2018-12-29T21:42:56.431Z,47.99
2018-12-29T21:45:26.787Z,49.10
2018-12-29T21:47:56.995Z,49.25
2018-12-29T21:50:27.205Z,50.78
2018-12-29T21:52:59.459Z,54.09
2018-12-29T21:55:29.830Z,48.96
2018-12-29T21:58:00.088Z,51.30
2018-12-29T22:00:30.367Z,52.25
2018-12-29T22:03:00.650Z,52.51
2018-12-29T22:05:30.898Z,51.97
2018-12-29T22:08:01.145Z,52.45
2018-12-29T22:10:31.347Z,52.11
2018-12-29T22:13:01.635Z,52.85
2018-12-29T22:15:31.975Z,51.72
2018-12-29T22:18:02.147Z,53.08
2018-12-29T22:20:33.342Z,53.81
2018-12-29T22:23:04.037Z,55.23
2018-12-29T22:25:34.311Z,53.42
2018-12-29T22:28:04.479Z,53.82
2018-12-29T22:30:34.664Z,58.09
2018-12-29T22:33:04.951Z,53.14
2018-12-29T22:35:35.194Z,53.21
2018-12-29T22:38:05.371Z,53.37
2018-12-29T22:40:35.666Z,53.05
2018-12-29T22:43:05.914Z,53.60
2018-12-29T22:45:36.095Z,59.80
2018-12-29T22:48:06.387Z,53.34
2018-12-29T22:50:40.945Z,53.92
2018-12-29T22:55:44.593Z,70.31
2018-12-29T22:58:14.867Z,52.42
2018-12-29T23:01:05.149Z,51.72
2018-12-29T23:03:35.794Z,51.98
2018-12-29T23:06:06.071Z,52.35
2018-12-29T23:08:36.330Z,51.75
2018-12-29T23:11:07.004Z,51.20
2018-12-29T23:13:37.279Z,50.94
2018-12-29T23:16:07.584Z,51.97
2018-12-29T23:18:37.876Z,55.08
2018-12-29T23:21:08.229Z,54.50
2018-12-29T23:23:38.426Z,53.23
2018-12-29T23:26:08.857Z,51.09
2018-12-29T23:28:39.059Z,50.78
2018-12-29T23:31:09.699Z,53.85
2018-12-29T23:33:39.976Z,57.33
2018-12-29T23:36:10.245Z,56.72
2018-12-29T23:38:40.420Z,55.47
2018-12-29T23:41:10.689Z,55.60
2018-12-29T23:43:41.469Z,53.22
2018-12-29T23:46:11.732Z,52.01
2018-12-29T23:48:42.000Z,51.96
2018-12-29T23:51:12.235Z,52.08
2018-12-29T23:53:42.513Z,52.56
2018-12-29T23:56:12.946Z,52.93
2018-12-29T23:58:43.106Z,52.73
